• Join FlightAware (Why Join?)
  • Login
  • US Flag 
01:57PM EDT


 

Airport Tracker/Info


-or-


 

Live Flight TrackerFlight Track Log ✈ CDG4970 ✈ 31-Aug-2013 ✈ ZSWY / WUS - ZSAM / XMN

Flight Track Log - Related Links

Times and Time Zones

All times are in EDT time to prevent confusion due to time zone crossing. See the CDG4970 flight status page for this flight to view local times or setup timezone preferences in your user account.

Time Position Orientation Groundspeed Altitude Reporting Facility
EDT Latitude Longitude Course Direction KTS MPH feet Rate Location/Type
08:40PM 26.8644 118.0356 178° South  Level Estimated
08:41PM 26.7713 118.0394 178° South  Level Estimated
08:42PM 26.6782 118.0431 178° South  Level Estimated
08:43PM 26.6011 118.0462 178° South  Level Estimated
08:44PM 26.5239 118.0493 178° South  Level Estimated
08:45PM 26.4467 118.0524 178° South  Level Estimated
08:46PM 26.3695 118.0555 178° South  Level Estimated
08:47PM 26.2924 118.0586 178° South  Level Estimated
08:48PM 26.2152 118.0617 178° South  Level Estimated
08:48PM 26.0730 117.9930 178° South 410 472 20,700  Level FlightAware
08:49PM 26.1380 118.0648 178° South  Level Estimated
08:49PM 26.0110 117.9940 179° South 410 472 20,700  Level FlightAware
08:49PM 25.9500 117.9950 179° South 410 472 20,700  Level FlightAware
08:50PM 25.8880 117.9970 178° South 410 472 20,700  Level FlightAware
08:51PM 25.8280 118.0000 177° South 410 472 20,700  Level FlightAware
08:51PM 25.7670 118.0020 178° South 410 472 20,700  Level FlightAware
08:52PM 25.7090 118.0040 178° South 410 472 20,700  Level FlightAware
08:52PM 25.6540 118.0070 177° South 410 472 20,700  Level FlightAware
08:53PM 25.5960 118.0090 178° South 410 472 20,700  Level FlightAware
08:56PM 25.4065 118.0305 174° South  Level Estimated
08:57PM 25.3297 118.0393 174° South  Level Estimated
08:58PM 25.2529 118.0480 174° South  Level Estimated
08:59PM 25.1761 118.0566 174° South  Level Estimated
09:00PM 25.0992 118.0653 174° South  Level Estimated
09:01PM 25.0224 118.0740 174° South  Level Estimated
09:02PM 24.9456 118.0826 174° South  Level Estimated
09:03PM 24.8687 118.0913 174° South  Level Estimated
09:04PM 24.7919 118.0999 174° South  Level Estimated
09:05PM 24.7151 118.1086 174° South  Level Estimated
09:06PM 24.6383 118.1172 174° South  Level Estimated
09:07PM 24.5614 118.1258 174° South  Level Estimated
09:08PM 24.5440 118.1277 174° South  Level Estimated
09:09PM 24.5440 118.1277 193° South  Level Estimated
09:10PM 24.5440 118.1277 193° South  Level Estimated
09:11PM 24.5440 118.1277 193° South  Level Estimated
09:12PM 24.5440 118.1277 193° South  Level Estimated
09:13PM 24.5440 118.1277 193° South  Level Estimated
09:14PM 24.5440 118.1277 193° South  Level Estimated
09:15PM 24.5440 118.1277 193° South  Level Estimated
09:16PM 24.5440 118.1277 193° South  Level Estimated
09:17PM 24.5440 118.1277 193° South  Level Estimated
09:18PM 24.5440 118.1277 193° South  Level Estimated